createdAt,value
2019-03-03T00:00:00.163Z,30.47
2019-03-03T00:02:32.367Z,28.17
2019-03-03T00:05:04.145Z,28.03
2019-03-03T00:07:38.953Z,31.40
2019-03-03T00:10:10.031Z,29.83
2019-03-03T00:12:43.598Z,31.17
2019-03-03T00:15:17.473Z,28.43
2019-03-03T00:17:49.393Z,28.50
2019-03-03T00:20:21.391Z,29.40
2019-03-03T00:22:55.003Z,31.13
2019-03-03T00:25:26.838Z,29.80
2019-03-03T00:27:58.861Z,31.83
2019-03-03T00:30:30.538Z,31.20
2019-03-03T00:33:02.431Z,33.30
2019-03-03T00:35:34.139Z,31.47
2019-03-03T00:38:30.160Z,31.03
2019-03-03T00:41:20.531Z,29.87
2019-03-03T00:44:23.872Z,33.00
2019-03-03T00:47:16.699Z,32.40
2019-03-03T00:50:09.549Z,34.77
2019-03-03T00:53:02.296Z,34.77
2019-03-03T00:55:50.108Z,33.67
2019-03-03T00:58:42.768Z,34.10
2019-03-03T01:01:27.059Z,35.77
2019-03-03T01:04:14.635Z,32.77
2019-03-03T01:07:05.576Z,36.50
2019-03-03T01:09:49.839Z,37.17
2019-03-03T01:12:48.700Z,35.90
2019-03-03T01:15:30.495Z,37.77
2019-03-03T01:18:22.136Z,38.07
2019-03-03T01:21:17.940Z,35.43
2019-03-03T01:24:16.718Z,34.60
2019-03-03T01:26:49.129Z,34.27
2019-03-03T01:29:21.305Z,34.63
2019-03-03T01:31:53.986Z,34.87
2019-03-03T01:34:25.699Z,33.83
2019-03-03T01:36:58.836Z,35.13
2019-03-03T01:39:33.123Z,34.37
2019-03-03T01:42:04.962Z,36.33
2019-03-03T01:44:37.853Z,33.70
2019-03-03T01:47:11.571Z,35.67
2019-03-03T01:49:44.862Z,35.53
2019-03-03T01:52:16.653Z,34.53
2019-03-03T01:54:48.426Z,33.23
2019-03-03T01:57:20.039Z,35.23
2019-03-03T01:59:52.047Z,32.93
2019-03-03T02:02:24.978Z,33.97
2019-03-03T02:04:56.631Z,34.63
2019-03-03T02:07:28.258Z,35.53
2019-03-03T02:10:03.108Z,35.10
2019-03-03T02:12:37.422Z,35.80
2019-03-03T02:15:10.577Z,37.17
2019-03-03T02:17:45.310Z,33.20
2019-03-03T02:20:17.416Z,33.90
2019-03-03T02:22:51.227Z,36.37
2019-03-03T02:25:24.901Z,35.70
2019-03-03T02:27:57.011Z,33.93
2019-03-03T02:30:28.905Z,35.60
2019-03-03T02:33:01.305Z,35.43
2019-03-03T02:35:33.346Z,34.50
2019-03-03T02:38:06.377Z,37.23
2019-03-03T02:40:39.936Z,36.27
2019-03-03T02:43:13.557Z,37.07
2019-03-03T02:45:47.816Z,37.03
2019-03-03T02:48:19.937Z,35.37
2019-03-03T02:50:52.755Z,36.83
2019-03-03T02:53:27.315Z,34.97
2019-03-03T02:55:59.263Z,34.10
2019-03-03T02:58:32.237Z,36.93
2019-03-03T03:01:31.287Z,36.93
2019-03-03T03:04:03.642Z,36.27
2019-03-03T03:06:57.129Z,36.00
2019-03-03T03:09:57.520Z,36.23
2019-03-03T03:12:37.783Z,35.00
2019-03-03T03:15:33.217Z,34.40
2019-03-03T03:18:35.912Z,35.33
2019-03-03T03:21:17.710Z,33.97
2019-03-03T03:24:15.874Z,34.47
2019-03-03T03:27:09.033Z,35.37
2019-03-03T03:30:04.441Z,36.40
2019-03-03T03:33:00.593Z,35.60
2019-03-03T03:35:45.630Z,37.83
2019-03-03T03:38:38.800Z,35.03
2019-03-03T03:41:34.990Z,37.07
2019-03-03T03:44:23.512Z,36.43
2019-03-03T03:47:15.383Z,37.10
2019-03-03T03:49:57.081Z,37.03
2019-03-03T03:52:40.358Z,39.87
2019-03-03T03:55:31.032Z,39.03
2019-03-03T03:58:23.302Z,36.40
2019-03-03T04:01:15.809Z,37.37
2019-03-03T04:04:17.540Z,38.00
2019-03-03T04:07:10.083Z,38.73
2019-03-03T04:09:56.313Z,39.57
2019-03-03T04:12:47.309Z,40.27
2019-03-03T04:15:42.738Z,37.63
2019-03-03T04:18:35.684Z,37.10
2019-03-03T04:21:28.945Z,36.50
2019-03-03T04:24:25.175Z,37.70
2019-03-03T04:27:12.388Z,35.23
2019-03-03T04:29:52.023Z,40.43
2019-03-03T04:32:30.534Z,40.60
2019-03-03T04:35:26.172Z,40.57
2019-03-03T04:38:19.073Z,38.47
2019-03-03T04:41:10.318Z,40.23
2019-03-03T04:44:00.720Z,36.73
2019-03-03T04:46:39.328Z,36.30
2019-03-03T04:49:24.091Z,39.07
2019-03-03T04:52:23.112Z,40.47
2019-03-03T04:55:15.833Z,40.17
2019-03-03T04:58:04.082Z,39.17
2019-03-03T05:01:12.322Z,38.90
2019-03-03T05:04:07.502Z,43.10
2019-03-03T05:07:06.518Z,39.27
2019-03-03T05:09:57.330Z,38.70
2019-03-03T05:12:57.357Z,38.70
2019-03-03T05:15:49.869Z,34.50
2019-03-03T05:18:30.432Z,40.90
2019-03-03T05:21:03.384Z,38.50
2019-03-03T05:23:34.991Z,42.77
2019-03-03T05:26:06.837Z,40.50
2019-03-03T05:28:38.392Z,35.77
2019-03-03T05:31:10.119Z,41.50
2019-03-03T05:33:42.835Z,39.57
2019-03-03T05:36:14.743Z,40.13
2019-03-03T05:38:47.093Z,40.33
2019-03-03T05:41:18.739Z,41.80
2019-03-03T05:43:50.297Z,43.53
2019-03-03T05:46:24.049Z,38.77
2019-03-03T05:48:57.640Z,38.80
2019-03-03T05:51:29.626Z,38.67
2019-03-03T05:54:00.572Z,42.50
2019-03-03T05:56:32.467Z,39.67
2019-03-03T05:59:04.016Z,39.67
2019-03-03T06:01:35.675Z,38.20
2019-03-03T06:04:07.446Z,41.80
2019-03-03T06:06:39.234Z,41.27
2019-03-03T06:09:11.066Z,40.57
2019-03-03T06:11:43.473Z,41.63
2019-03-03T06:14:15.309Z,39.90
2019-03-03T06:16:48.333Z,43.47
2019-03-03T06:19:19.946Z,40.67
2019-03-03T06:21:51.917Z,39.73
2019-03-03T06:24:23.697Z,41.50
2019-03-03T06:26:55.995Z,42.40
2019-03-03T06:29:27.933Z,40.73
2019-03-03T06:31:59.802Z,43.87
2019-03-03T06:34:32.575Z,42.93
2019-03-03T06:37:04.536Z,39.63
2019-03-03T06:39:36.135Z,43.43
2019-03-03T06:42:07.946Z,37.60
2019-03-03T06:44:39.515Z,37.23
2019-03-03T06:47:11.348Z,38.77
2019-03-03T06:49:42.955Z,40.93
2019-03-03T06:52:16.057Z,42.00
2019-03-03T06:54:47.685Z,41.27
2019-03-03T06:57:19.436Z,41.50
2019-03-03T06:59:51.274Z,43.87
2019-03-03T07:02:23.073Z,42.63
2019-03-03T07:04:55.808Z,41.40
2019-03-03T07:07:27.692Z,43.93
2019-03-03T07:09:59.434Z,41.27
2019-03-03T07:12:34.008Z,40.77
2019-03-03T07:15:05.998Z,41.10
2019-03-03T07:17:37.631Z,41.60
2019-03-03T07:20:11.307Z,40.30
2019-03-03T07:22:43.530Z,40.47
2019-03-03T07:25:15.172Z,39.70
2019-03-03T07:27:47.066Z,36.83
2019-03-03T07:30:27.106Z,38.80
2019-03-03T07:33:22.289Z,36.23
2019-03-03T07:35:55.040Z,38.23
2019-03-03T07:38:26.829Z,40.27
2019-03-03T07:40:58.925Z,43.03
2019-03-03T07:43:30.554Z,40.67
2019-03-03T07:46:02.578Z,42.77
2019-03-03T07:48:34.412Z,42.03
2019-03-03T07:51:06.300Z,44.27
2019-03-03T07:53:37.924Z,45.43
2019-03-03T07:56:09.756Z,44.63
2019-03-03T07:58:41.642Z,43.80
2019-03-03T08:01:13.463Z,43.27
2019-03-03T08:03:47.551Z,43.67
2019-03-03T08:06:19.295Z,45.23
2019-03-03T08:08:51.155Z,43.17
2019-03-03T08:11:26.273Z,42.43
2019-03-03T08:13:58.278Z,44.67
2019-03-03T08:16:29.996Z,41.03
2019-03-03T08:19:01.703Z,41.07
2019-03-03T08:21:33.819Z,41.37
2019-03-03T08:24:05.706Z,40.47
2019-03-03T08:26:38.773Z,41.20
2019-03-03T08:29:10.759Z,41.40
2019-03-03T08:31:46.656Z,40.33
2019-03-03T08:34:18.688Z,38.67
2019-03-03T08:36:53.075Z,39.03
2019-03-03T08:39:25.067Z,37.30
2019-03-03T08:42:21.694Z,37.00
2019-03-03T08:45:12.541Z,36.50
2019-03-03T08:47:53.485Z,35.73
2019-03-03T08:50:49.457Z,35.17
2019-03-03T08:53:40.608Z,36.13
2019-03-03T08:56:31.072Z,34.80
2019-03-03T08:59:30.106Z,34.53
2019-03-03T09:02:28.650Z,34.97
2019-03-03T09:05:33.899Z,33.63
2019-03-03T09:08:22.420Z,35.27
2019-03-03T09:11:11.375Z,31.50
2019-03-03T09:14:07.437Z,33.03
2019-03-03T09:17:11.760Z,32.87
2019-03-03T09:20:02.424Z,32.93
2019-03-03T09:23:01.070Z,33.57
2019-03-03T09:25:54.283Z,31.83
2019-03-03T09:29:01.200Z,31.13
2019-03-03T09:31:52.894Z,33.23
2019-03-03T09:34:45.720Z,33.00
2019-03-03T09:37:33.020Z,32.67
2019-03-03T09:40:29.495Z,32.27
2019-03-03T09:43:10.042Z,27.67
2019-03-03T09:46:03.454Z,29.07
2019-03-03T09:49:05.930Z,30.63
2019-03-03T09:51:49.943Z,31.00
2019-03-03T09:54:40.434Z,31.70
2019-03-03T09:57:23.640Z,32.40
2019-03-03T10:00:12.608Z,27.63
2019-03-03T10:03:03.637Z,29.30
2019-03-03T10:06:05.914Z,29.13
2019-03-03T10:09:04.187Z,29.07
2019-03-03T10:11:49.741Z,27.10
2019-03-03T10:14:35.561Z,31.50
2019-03-03T10:17:26.334Z,25.37
2019-03-03T10:20:17.872Z,24.23
2019-03-03T10:23:19.686Z,27.57
2019-03-03T10:26:16.501Z,22.80
2019-03-03T10:29:02.839Z,27.10
2019-03-03T10:31:53.513Z,28.23
2019-03-03T10:34:35.686Z,24.37
2019-03-03T10:37:33.676Z,23.70
2019-03-03T10:40:22.019Z,24.93
2019-03-03T10:43:20.930Z,26.03
2019-03-03T10:46:12.512Z,25.40
2019-03-03T10:49:14.302Z,23.03
2019-03-03T10:51:55.560Z,25.03
2019-03-03T10:54:53.123Z,23.77
2019-03-03T10:57:42.750Z,25.60
2019-03-03T11:00:38.222Z,27.50
2019-03-03T11:03:44.287Z,24.63
2019-03-03T11:06:46.134Z,26.00
2019-03-03T11:09:33.738Z,23.07
2019-03-03T11:12:34.221Z,25.73
2019-03-03T11:15:25.906Z,26.63
2019-03-03T11:18:14.664Z,22.73
2019-03-03T11:21:24.619Z,26.10
2019-03-03T11:24:11.853Z,23.07
2019-03-03T11:27:05.024Z,25.97
2019-03-03T11:30:00.555Z,25.87
2019-03-03T11:32:46.062Z,25.23
2019-03-03T11:35:36.694Z,27.80
2019-03-03T11:38:24.098Z,23.80
2019-03-03T11:41:05.947Z,24.77
2019-03-03T11:43:52.712Z,24.77
2019-03-03T11:46:49.332Z,25.37
2019-03-03T11:49:33.211Z,23.27
2019-03-03T11:52:29.528Z,22.07
2019-03-03T11:55:24.522Z,22.17
2019-03-03T11:58:05.592Z,22.60
2019-03-03T12:00:59.070Z,23.63
2019-03-03T12:03:47.793Z,23.13
2019-03-03T12:06:35.337Z,27.20
2019-03-03T12:09:31.490Z,26.03
2019-03-03T12:12:34.798Z,18.83
2019-03-03T12:15:33.775Z,26.40
2019-03-03T12:18:22.125Z,21.23
2019-03-03T12:21:03.284Z,25.53
2019-03-03T12:23:55.042Z,18.57
2019-03-03T12:26:46.034Z,28.43
2019-03-03T12:29:31.714Z,28.47
2019-03-03T12:32:24.564Z,26.23
2019-03-03T12:35:05.418Z,27.90
2019-03-03T12:38:01.272Z,26.37
2019-03-03T12:40:50.744Z,26.63
2019-03-03T12:43:38.965Z,25.97
2019-03-03T12:46:45.154Z,25.73
2019-03-03T12:49:36.821Z,26.30
2019-03-03T12:52:32.274Z,26.40
2019-03-03T12:55:28.408Z,24.90
2019-03-03T12:58:36.100Z,24.93
2019-03-03T13:01:32.034Z,26.97
2019-03-03T13:04:24.130Z,26.33
2019-03-03T13:07:14.854Z,25.90
2019-03-03T13:10:13.858Z,25.97
2019-03-03T13:12:52.580Z,24.87
2019-03-03T13:15:54.860Z,26.07
2019-03-03T13:18:53.230Z,25.03
2019-03-03T13:21:49.260Z,25.27
2019-03-03T13:24:40.330Z,26.20
2019-03-03T13:27:38.321Z,24.33
2019-03-03T13:30:43.416Z,26.03
2019-03-03T13:33:45.046Z,26.60
2019-03-03T13:36:36.537Z,32.50
2019-03-03T13:39:34.359Z,27.33
2019-03-03T13:42:33.494Z,26.97
2019-03-03T13:45:07.195Z,25.33
2019-03-03T13:47:39.379Z,27.67
2019-03-03T13:50:13.043Z,27.40
2019-03-03T13:52:45.172Z,27.27
2019-03-03T13:55:17.382Z,24.17
2019-03-03T13:57:49.100Z,27.03
2019-03-03T14:00:21.584Z,26.90
2019-03-03T14:02:55.287Z,26.73
2019-03-03T14:05:27.157Z,26.07
2019-03-03T14:07:58.900Z,25.63
2019-03-03T14:10:31.226Z,25.53
2019-03-03T14:13:03.196Z,26.13
2019-03-03T14:15:34.960Z,26.17
2019-03-03T14:18:06.962Z,27.07
2019-03-03T14:20:38.705Z,26.10
2019-03-03T14:23:10.402Z,26.50
2019-03-03T14:25:42.227Z,26.57
2019-03-03T14:28:14.059Z,25.57
2019-03-03T14:30:45.877Z,24.27
2019-03-03T14:33:17.583Z,25.93
2019-03-03T14:35:49.613Z,25.73
2019-03-03T14:38:22.552Z,24.07
2019-03-03T14:40:54.299Z,24.60
2019-03-03T14:43:26.750Z,25.20
2019-03-03T14:45:59.712Z,24.27
2019-03-03T14:48:32.016Z,25.87
2019-03-03T14:51:03.949Z,26.20
2019-03-03T14:53:36.691Z,27.40
2019-03-03T14:56:08.804Z,25.83
2019-03-03T14:58:40.820Z,24.40
2019-03-03T15:01:17.627Z,25.40
2019-03-03T15:03:49.343Z,25.93
2019-03-03T15:06:24.403Z,23.83
2019-03-03T15:08:57.488Z,23.37
2019-03-03T15:11:29.949Z,22.70
2019-03-03T15:14:01.552Z,21.27
2019-03-03T15:16:33.698Z,23.10
2019-03-03T15:19:05.527Z,23.50
2019-03-03T15:21:39.663Z,22.00
2019-03-03T15:24:15.662Z,21.60
2019-03-03T15:26:48.061Z,22.13
2019-03-03T15:29:22.726Z,22.97
2019-03-03T15:31:54.685Z,21.83
2019-03-03T15:34:26.512Z,22.30
2019-03-03T15:36:59.707Z,22.00
2019-03-03T15:39:31.905Z,22.53
2019-03-03T15:42:03.865Z,20.97
2019-03-03T15:44:35.601Z,21.77
2019-03-03T15:47:07.784Z,21.73
2019-03-03T15:49:42.446Z,19.90
2019-03-03T15:52:16.137Z,20.70
2019-03-03T15:54:47.820Z,20.60
2019-03-03T15:57:19.486Z,21.20
2019-03-03T15:59:55.145Z,19.17
2019-03-03T16:02:27.055Z,22.13
2019-03-03T16:04:58.833Z,21.37
2019-03-03T16:07:35.667Z,22.07
2019-03-03T16:10:07.835Z,20.03
2019-03-03T16:12:39.780Z,19.80
2019-03-03T16:15:13.604Z,21.63
2019-03-03T16:17:48.458Z,19.80
2019-03-03T16:20:20.639Z,19.87
2019-03-03T16:22:52.520Z,18.10
2019-03-03T16:25:24.221Z,19.07
2019-03-03T16:27:56.489Z,19.07
2019-03-03T16:30:30.035Z,17.97
2019-03-03T16:33:01.996Z,18.77
2019-03-03T16:35:35.147Z,17.53
2019-03-03T16:38:07.002Z,16.87
2019-03-03T16:40:39.808Z,18.70
2019-03-03T16:43:12.289Z,17.57
2019-03-03T16:45:44.125Z,18.57
2019-03-03T16:48:16.205Z,16.67
2019-03-03T16:50:48.295Z,16.63
2019-03-03T16:53:19.870Z,18.47
2019-03-03T16:55:53.435Z,13.30
2019-03-03T16:58:25.376Z,16.73
2019-03-03T17:00:57.151Z,17.03
2019-03-03T17:03:28.931Z,18.43
2019-03-03T17:06:00.751Z,19.53
2019-03-03T17:08:32.510Z,17.77
2019-03-03T17:11:04.456Z,18.20
2019-03-03T17:13:36.611Z,19.57
2019-03-03T17:16:09.684Z,19.17
2019-03-03T17:18:41.291Z,19.40
2019-03-03T17:21:13.338Z,19.70
2019-03-03T17:23:45.338Z,17.93
2019-03-03T17:26:17.300Z,18.93
2019-03-03T17:28:49.000Z,19.33
2019-03-03T17:31:20.838Z,17.77
2019-03-03T17:33:56.778Z,19.13
2019-03-03T17:36:28.781Z,18.80
2019-03-03T17:39:01.062Z,19.17
2019-03-03T17:41:33.410Z,18.30
2019-03-03T17:44:05.078Z,17.93
2019-03-03T17:46:36.771Z,18.17
2019-03-03T17:49:08.983Z,20.93
2019-03-03T17:51:40.990Z,18.50
2019-03-03T17:54:13.158Z,17.87
2019-03-03T17:56:45.058Z,19.57
2019-03-03T17:59:18.819Z,17.23
2019-03-03T18:01:52.511Z,18.33
2019-03-03T18:04:24.190Z,15.97
2019-03-03T18:06:55.800Z,18.47
2019-03-03T18:09:27.530Z,14.97
2019-03-03T18:11:59.149Z,17.53
2019-03-03T18:14:31.026Z,19.80
2019-03-03T18:17:03.018Z,17.43
2019-03-03T18:19:34.746Z,16.90
2019-03-03T18:22:08.714Z,18.47
2019-03-03T18:24:53.766Z,15.20
2019-03-03T18:27:25.393Z,22.27
2019-03-03T18:29:57.672Z,16.37
2019-03-03T18:32:29.363Z,21.23
2019-03-03T18:35:01.180Z,18.67
2019-03-03T18:37:33.219Z,24.40
2019-03-03T18:40:05.584Z,24.30
2019-03-03T18:42:42.592Z,23.33
2019-03-03T18:45:15.598Z,25.03
2019-03-03T18:47:47.594Z,20.87
2019-03-03T18:50:19.443Z,26.13
2019-03-03T18:52:51.404Z,24.33
2019-03-03T18:55:23.047Z,28.17
2019-03-03T18:57:57.406Z,24.87
2019-03-03T19:00:29.637Z,21.07
2019-03-03T19:03:01.792Z,25.10
2019-03-03T19:05:35.559Z,28.37
2019-03-03T19:08:07.350Z,26.53
2019-03-03T19:10:41.945Z,28.23
2019-03-03T19:13:13.953Z,27.80
2019-03-03T19:15:45.796Z,27.17
2019-03-03T19:18:17.817Z,28.67
2019-03-03T19:20:50.555Z,26.53
2019-03-03T19:23:22.732Z,28.13
2019-03-03T19:25:54.506Z,29.93
2019-03-03T19:28:26.738Z,27.93
2019-03-03T19:30:58.679Z,26.93
2019-03-03T19:33:47.337Z,27.33
2019-03-03T19:36:19.044Z,23.40
2019-03-03T19:38:50.758Z,24.97
2019-03-03T19:41:22.374Z,28.97
2019-03-03T19:43:55.658Z,28.17
2019-03-03T19:46:28.190Z,29.50
2019-03-03T19:49:00.135Z,27.40
2019-03-03T19:51:32.090Z,21.73
2019-03-03T19:54:04.152Z,27.63
2019-03-03T19:56:36.022Z,21.90
2019-03-03T19:59:07.943Z,18.67
2019-03-03T20:01:40.196Z,25.47
2019-03-03T20:04:12.151Z,26.77
2019-03-03T20:06:44.432Z,24.87
2019-03-03T20:09:18.031Z,27.03
2019-03-03T20:11:50.044Z,23.37
2019-03-03T20:14:21.878Z,21.20
2019-03-03T20:16:56.059Z,22.07
2019-03-03T20:19:28.406Z,21.97
2019-03-03T20:22:00.434Z,16.77
2019-03-03T20:24:32.796Z,21.17
2019-03-03T20:27:04.552Z,22.80
2019-03-03T20:29:38.733Z,23.67
2019-03-03T20:32:10.803Z,12.37
2019-03-03T20:34:42.723Z,20.47
2019-03-03T20:37:14.887Z,25.53
2019-03-03T20:39:46.619Z,24.77
2019-03-03T20:42:18.666Z,24.73
2019-03-03T20:44:50.508Z,24.13
2019-03-03T20:47:22.588Z,22.17
2019-03-03T20:49:54.296Z,22.53
2019-03-03T20:52:26.023Z,22.00
2019-03-03T20:54:57.793Z,24.87
2019-03-03T20:57:29.908Z,25.77
2019-03-03T21:00:04.757Z,23.70
2019-03-03T21:02:36.784Z,20.17
2019-03-03T21:05:08.632Z,25.53
2019-03-03T21:07:50.486Z,22.13
2019-03-03T21:10:18.501Z,24.77
2019-03-03T21:12:50.244Z,25.17
2019-03-03T21:15:22.294Z,24.07
2019-03-03T21:17:54.383Z,19.03
2019-03-03T21:20:27.387Z,26.20
2019-03-03T21:22:59.132Z,26.43
2019-03-03T21:25:30.810Z,22.30
2019-03-03T21:28:03.453Z,24.40
2019-03-03T21:30:39.083Z,24.77
2019-03-03T21:33:10.872Z,25.90
2019-03-03T21:35:46.861Z,25.70
2019-03-03T21:38:18.678Z,24.93
2019-03-03T21:40:50.933Z,23.03
2019-03-03T21:43:22.851Z,23.80
2019-03-03T21:45:54.918Z,25.93
2019-03-03T21:48:26.820Z,24.23
2019-03-03T21:50:58.556Z,22.20
2019-03-03T21:53:30.356Z,25.47
2019-03-03T21:56:02.098Z,25.00
2019-03-03T21:58:34.156Z,23.10
2019-03-03T22:01:07.895Z,26.17
2019-03-03T22:03:39.648Z,19.40
2019-03-03T22:06:11.682Z,30.53
2019-03-03T22:08:43.468Z,33.30
2019-03-03T22:11:15.308Z,33.53
2019-03-03T22:13:47.122Z,29.73
2019-03-03T22:16:18.670Z,33.53
2019-03-03T22:18:50.677Z,31.93
2019-03-03T22:21:22.706Z,30.60
2019-03-03T22:23:54.778Z,27.27
2019-03-03T22:26:26.874Z,27.67
2019-03-03T22:28:58.664Z,27.33
2019-03-03T22:31:30.802Z,28.87
2019-03-03T22:34:02.761Z,27.23
2019-03-03T22:36:34.528Z,28.90
2019-03-03T22:39:07.232Z,27.77
2019-03-03T22:41:38.929Z,27.60
2019-03-03T22:44:10.711Z,24.47
2019-03-03T22:46:42.497Z,28.10
2019-03-03T22:49:14.252Z,28.60
2019-03-03T22:51:46.040Z,30.97
2019-03-03T22:54:17.718Z,29.53
2019-03-03T22:56:49.494Z,28.10
2019-03-03T22:59:21.406Z,28.47
2019-03-03T23:01:53.062Z,26.67
2019-03-03T23:05:10.754Z,29.57
2019-03-03T23:08:00.114Z,28.20
2019-03-03T23:11:12.918Z,26.73
2019-03-03T23:14:03.013Z,27.20
2019-03-03T23:17:05.788Z,27.97
2019-03-03T23:20:25.254Z,28.57
2019-03-03T23:23:13.544Z,29.90
2019-03-03T23:25:53.856Z,28.57
2019-03-03T23:28:26.244Z,29.20
2019-03-03T23:30:59.980Z,26.03
2019-03-03T23:33:31.932Z,30.93
2019-03-03T23:36:04.050Z,30.63
2019-03-03T23:38:35.932Z,33.33
2019-03-03T23:41:07.668Z,30.40
2019-03-03T23:43:39.991Z,27.07
2019-03-03T23:46:11.654Z,28.47
2019-03-03T23:48:43.743Z,31.23
2019-03-03T23:51:15.354Z,31.97
2019-03-03T23:53:47.036Z,29.77
2019-03-03T23:56:18.918Z,27.47
2019-03-03T23:58:50.706Z,29.30
